Time;durP1;ratioP1;P1;durP2;ratioP2;P2;SDS_P1;SDS_P2;PMS_P1;PMS_P2;Temp;Humidity;BMP_temperature;BMP_pressure;BME280_temperature;BME280_humidity;BME280_pressure;Samples;Min_cycle;Max_cycle;Signal;HPM_P1;HPM_P2
2023/01/01 00:00:38;;;;;;;48.85;24.73;;;;;;;21.42;39.99;100722.22;5112494;28;20052;-68
2023/01/01 00:03:03;;;;;;;40.10;18.52;;;;;;;21.29;40.44;100710.56;5092890;28;20130;-68
2023/01/01 00:05:28;;;;;;;40.00;20.63;;;;;;;21.31;39.96;100709.53;5110779;28;20063;-68
2023/01/01 00:07:54;;;;;;;43.65;19.90;;;;;;;21.10;41.32;100710.72;5094114;28;20467;-68
2023/01/01 00:10:28;;;;;;;42.00;19.65;;;;;;;20.67;41.52;100703.31;5093109;28;20028;-68
2023/01/01 00:12:55;;;;;;;49.53;20.52;;;;;;;20.78;42.01;100706.25;5111381;28;20040;-68
2023/01/01 00:15:20;;;;;;;41.33;18.50;;;;;;;21.00;41.01;100713.91;5092273;28;20497;-67
2023/01/01 00:17:46;;;;;;;38.65;17.05;;;;;;;20.93;41.44;100709.88;5111741;28;20031;-68
2023/01/01 00:20:12;;;;;;;32.60;16.52;;;;;;;21.15;41.09;100716.66;5111993;28;20496;-67
2023/01/01 00:22:37;;;;;;;35.75;13.80;;;;;;;20.32;42.35;100719.34;5093807;28;20069;-68
2023/01/01 00:25:04;;;;;;;32.67;14.98;;;;;;;21.71;39.99;100714.38;5092049;28;20394;-67
2023/01/01 00:27:29;;;;;;;27.13;14.32;;;;;;;20.90;41.34;100714.53;5091708;28;20032;-67
2023/01/01 00:29:55;;;;;;;34.58;13.70;;;;;;;20.80;41.11;100720.34;5093294;28;20489;-67
2023/01/01 00:32:20;;;;;;;29.02;11.23;;;;;;;21.65;39.72;100723.56;5093653;28;20015;-67
2023/01/01 00:34:46;;;;;;;26.15;11.10;;;;;;;20.73;41.40;100713.66;5093499;28;20024;-68
2023/01/01 00:37:11;;;;;;;31.60;10.55;;;;;;;20.41;41.45;100718.84;5110192;28;20158;-67
2023/01/01 00:39:37;;;;;;;30.55;12.73;;;;;;;20.77;41.42;100699.25;5093565;28;20057;-67
2023/01/01 00:42:02;;;;;;;25.10;9.73;;;;;;;20.99;41.01;100703.34;5092642;28;20023;-67
2023/01/01 00:44:28;;;;;;;26.17;9.52;;;;;;;20.87;41.25;100717.31;5092737;28;20039;-68
2023/01/01 00:46:53;;;;;;;24.85;10.13;;;;;;;20.84;41.16;100702.41;5093126;28;20027;-68
2023/01/01 00:49:18;;;;;;;19.48;8.35;;;;;;;20.64;41.08;100703.47;5090811;28;20027;-67
2023/01/01 00:51:44;;;;;;;26.13;11.15;;;;;;;21.12;40.54;100709.72;5092694;28;20027;-67
2023/01/01 00:54:09;;;;;;;18.38;8.27;;;;;;;21.44;39.62;100709.66;5111703;28;20023;-67
2023/01/01 00:56:34;;;;;;;22.75;8.23;;;;;;;19.88;42.32;100719.81;5108789;28;20055;-67
2023/01/01 00:59:00;;;;;;;27.15;8.90;;;;;;;20.90;40.71;100710.06;5110992;28;20040;-68
2023/01/01 01:01:25;;;;;;;17.30;6.95;;;;;;;20.44;41.74;100712.50;5089378;28;20044;-67
2023/01/01 01:03:51;;;;;;;21.15;8.63;;;;;;;21.35;40.47;100726.16;5089528;28;20057;-68
2023/01/01 01:06:17;;;;;;;13.32;5.88;;;;;;;20.44;41.75;100731.97;5089178;28;20031;-67
2023/01/01 01:08:44;;;;;;;22.27;5.75;;;;;;;20.83;41.47;100725.47;5087778;28;20100;-68
2023/01/01 01:11:21;;;;;;;16.15;6.90;;;;;;;20.42;42.03;100743.59;5086417;28;20057;-68
2023/01/01 01:13:50;;;;;;;20.27;6.10;;;;;;;20.10;42.79;100728.41;5085788;28;20024;-68
2023/01/01 01:16:36;;;;;;;15.57;5.65;;;;;;;20.83;41.48;100721.97;5093607;28;20035;-68
2023/01/01 01:19:03;;;;;;;17.52;5.78;;;;;;;21.32;40.67;100731.63;5099454;27;20036;-68
2023/01/01 01:21:30;;;;;;;25.10;8.05;;;;;;;20.60;41.39;100739.94;5094767;28;20069;-67
2023/01/01 01:24:00;;;;;;;14.20;4.85;;;;;;;20.55;41.68;100762.38;5096401;28;20181;-68
2023/01/01 01:26:29;;;;;;;52.83;30.80;;;;;;;20.51;42.00;100746.63;5087819;28;20096;-68
2023/01/01 01:28:55;;;;;;;16.00;6.15;;;;;;;20.83;41.50;100762.66;5088514;28;20028;-69
2023/01/01 01:31:22;;;;;;;12.73;4.10;;;;;;;20.73;41.65;100729.59;5101412;28;20024;-67
2023/01/01 01:33:49;;;;;;;11.95;5.22;;;;;;;21.29;40.88;100755.75;5088504;28;20024;-68
2023/01/01 01:36:15;;;;;;;13.45;4.43;;;;;;;20.68;42.14;100750.22;5090572;28;20035;-67
2023/01/01 01:38:41;;;;;;;20.48;4.47;;;;;;;21.02;41.14;100751.03;5090740;28;20031;-68
2023/01/01 01:41:07;;;;;;;12.82;4.28;;;;;;;20.49;42.16;100752.94;5089701;28;20026;-67
2023/01/01 01:43:32;;;;;;;15.48;4.63;;;;;;;20.87;41.60;100757.16;5088938;28;20056;-68
2023/01/01 01:46:05;;;;;;;15.85;6.00;;;;;;;20.56;41.53;100769.41;5090894;28;20027;-67
2023/01/01 01:48:38;;;;;;;11.45;4.15;;;;;;;21.22;41.48;100757.88;5089003;28;20031;-68
2023/01/01 01:51:04;;;;;;;11.77;4.63;;;;;;;21.24;40.30;100771.97;5086418;28;20067;-67
2023/01/01 01:53:32;;;;;;;9.40;5.18;;;;;;;20.48;41.58;100770.69;5088512;28;20054;-68
2023/01/01 01:56:06;;;;;;;9.95;3.55;;;;;;;20.48;41.79;100778.66;5089060;28;20020;-68
2023/01/01 01:58:33;;;;;;;15.90;4.13;;;;;;;21.12;40.92;100783.25;5089430;28;20032;-68
2023/01/01 02:00:59;;;;;;;6.45;3.05;;;;;;;20.47;42.10;100792.84;5109339;28;20051;-68
2023/01/01 02:03:35;;;;;;;9.73;3.40;;;;;;;20.02;42.61;100804.88;5087615;28;20060;-67
2023/01/01 02:06:02;;;;;;;14.75;3.53;;;;;;;21.10;40.71;100778.03;5090601;28;20036;-68
2023/01/01 02:08:28;;;;;;;8.30;3.35;;;;;;;20.91;40.85;100782.63;5088751;28;20031;-68
2023/01/01 02:10:54;;;;;;;12.95;3.58;;;;;;;20.95;40.95;100800.09;5088599;28;20024;-68
2023/01/01 02:13:20;;;;;;;8.40;3.00;;;;;;;20.91;40.78;100791.47;5085595;28;20441;-68
2023/01/01 02:16:23;;;;;;;10.98;3.53;;;;;;;20.60;40.92;100809.00;5087537;28;20024;-68
2023/01/01 02:19:00;;;;;;;13.43;3.05;;;;;;;20.92;40.16;100794.97;5085906;28;20040;-67
2023/01/01 02:21:33;;;;;;;11.38;3.13;;;;;;;21.21;40.00;100788.06;5106891;28;20056;-68
2023/01/01 02:24:11;;;;;;;11.57;3.80;;;;;;;20.79;40.70;100800.09;5087447;28;20040;-67
2023/01/01 02:26:49;;;;;;;14.40;2.83;;;;;;;20.67;41.17;100793.59;5086913;28;20035;-67
2023/01/01 02:29:33;;;;;;;16.77;3.30;;;;;;;20.45;41.35;100797.38;5094656;28;20026;-68
2023/01/01 02:32:30;;;;;;;10.00;3.35;;;;;;;21.01;40.32;100813.94;5081232;28;20027;-68
2023/01/01 02:37:53;;;;;;;11.73;3.03;;;;;;;20.25;41.43;100818.78;5074976;28;20039;-68
2023/01/01 02:40:22;;;;;;;11.68;2.70;;;;;;;20.53;41.57;100814.72;5091384;28;20028;-68
2023/01/01 02:42:48;;;;;;;10.57;2.35;;;;;;;20.48;41.30;100815.81;5104523;28;20028;-67
2023/01/01 02:45:14;;;;;;;8.57;2.55;;;;;;;20.53;41.18;100818.22;5113278;28;20057;-67
2023/01/01 02:47:39;;;;;;;7.00;2.20;;;;;;;19.94;42.41;100810.56;5106316;28;20386;-67
2023/01/01 02:50:12;;;;;;;8.52;2.88;;;;;;;20.47;41.58;100819.41;5093441;28;20024;-67
2023/01/01 02:52:41;;;;;;;11.30;3.28;;;;;;;21.30;39.82;100806.16;5104946;28;20024;-67
2023/01/01 02:55:36;;;;;;;12.82;2.67;;;;;;;20.41;41.29;100819.69;5112856;28;20049;-68
2023/01/01 03:01:31;;;;;;;15.82;2.67;;;;;;;20.20;41.98;100816.38;5106262;28;20063;-68
2023/01/01 03:04:20;;;;;;;9.85;2.53;;;;;;;19.92;42.68;100823.06;5093334;28;20028;-68
2023/01/01 03:07:11;;;;;;;10.70;2.50;;;;;;;21.10;40.61;100847.13;5087925;28;20377;-68
2023/01/01 03:09:58;;;;;;;13.73;3.00;;;;;;;20.46;41.73;100833.59;5091876;28;20116;-68
2023/01/01 03:12:41;;;;;;;11.68;2.40;;;;;;;20.92;41.03;100840.97;5100743;27;20054;-67
2023/01/01 03:15:37;;;;;;;9.20;4.05;;;;;;;20.65;41.57;100849.44;5088419;28;20038;-68
2023/01/01 03:18:28;;;;;;;8.02;2.90;;;;;;;21.57;39.83;100849.94;5099602;28;20023;-68
2023/01/01 03:20:57;;;;;;;9.52;2.50;;;;;;;20.83;41.86;100874.22;5102010;27;20443;-68
2023/01/01 03:23:30;;;;;;;8.95;2.55;;;;;;;20.98;42.99;100885.00;5112080;27;20020;-67
2023/01/01 03:26:00;;;;;;;9.90;2.55;;;;;;;21.33;45.11;100892.84;5110488;27;20023;-68
2023/01/01 03:28:36;;;;;;;8.18;2.60;;;;;;;20.91;45.64;100883.56;5090674;28;20055;-68
2023/01/01 03:31:02;;;;;;;10.98;2.30;;;;;;;19.73;48.02;100886.69;5092143;28;20028;-67
2023/01/01 03:33:40;;;;;;;8.50;2.13;;;;;;;19.30;49.20;100888.69;5109314;27;20020;-67
2023/01/01 03:36:09;;;;;;;9.95;1.98;;;;;;;19.35;49.54;100899.94;5106757;28;20031;-68
2023/01/01 03:38:42;;;;;;;9.02;1.92;;;;;;;19.25;48.59;100901.31;5092130;28;20055;-69
2023/01/01 03:41:20;;;;;;;8.35;1.55;;;;;;;19.29;47.97;100908.19;5092720;27;20051;-68
2023/01/01 03:43:55;;;;;;;9.48;2.30;;;;;;;19.37;47.43;100905.16;5108013;28;20039;-67
2023/01/01 03:46:26;;;;;;;7.70;1.98;;;;;;;19.66;46.98;100922.41;5112502;28;20063;-67
2023/01/01 03:48:55;;;;;;;7.53;1.85;;;;;;;19.40;47.00;100913.84;5115441;27;20031;-67
2023/01/01 03:51:42;;;;;;;13.32;2.88;;;;;;;19.33;47.06;100931.81;5106961;27;20078;-67
2023/01/01 03:54:32;;;;;;;11.15;2.80;;;;;;;19.00;47.50;100907.69;5112616;27;20031;-68
2023/01/01 03:57:15;;;;;;;8.30;3.22;;;;;;;19.58;46.87;100912.13;5132573;27;20042;-68
2023/01/01 04:00:02;;;;;;;4.07;2.42;;;;;;;20.72;44.13;100919.06;5110949;27;20080;-67
2023/01/01 04:02:34;;;;;;;6.70;2.50;;;;;;;19.62;45.97;100911.06;5093457;28;20027;-68
2023/01/01 04:05:02;;;;;;;4.10;1.23;;;;;;;19.97;45.87;100921.81;5110749;28;20026;-68
2023/01/01 04:07:30;;;;;;;14.70;1.73;;;;;;;19.85;46.25;100916.25;5094173;28;20068;-68
2023/01/01 04:09:58;;;;;;;11.27;2.00;;;;;;;20.19;45.70;100931.41;5124784;27;20033;-68
2023/01/01 04:12:25;;;;;;;8.55;1.60;;;;;;;20.21;45.88;100912.75;5103609;28;20016;-67
2023/01/01 04:14:50;;;;;;;14.02;2.65;;;;;;;20.02;46.24;100923.38;5111624;28;20552;-67
2023/01/01 04:17:15;;;;;;;9.88;2.33;;;;;;;19.83;46.35;100933.09;5092904;28;20054;-68
2023/01/01 04:19:41;;;;;;;10.95;2.03;;;;;;;19.98;45.87;100935.97;5113170;27;20023;-68
2023/01/01 04:22:06;;;;;;;8.45;2.13;;;;;;;19.89;47.30;100947.84;5093526;28;20129;-67
2023/01/01 04:24:31;;;;;;;10.20;2.33;;;;;;;20.54;45.44;100946.50;5111130;28;20386;-67
2023/01/01 04:26:57;;;;;;;9.52;2.00;;;;;;;20.93;44.68;100953.44;5093952;28;20486;-68
2023/01/01 04:29:23;;;;;;;6.28;1.83;;;;;;;20.25;45.86;100954.13;5110060;28;20479;-68
2023/01/01 04:31:48;;;;;;;7.35;2.15;;;;;;;19.10;48.45;100980.53;5110604;27;20107;-67
2023/01/01 04:34:14;;;;;;;7.78;1.60;;;;;;;19.26;48.31;100971.91;5110330;28;20027;-67
2023/01/01 04:36:39;;;;;;;7.47;2.25;;;;;;;19.61;47.48;100993.31;5091849;28;20603;-68
2023/01/01 04:39:05;;;;;;;7.22;1.52;;;;;;;19.23;48.00;100972.03;5111930;28;20027;-68
2023/01/01 04:41:31;;;;;;;7.70;1.75;;;;;;;19.65;47.12;100992.25;5113736;27;20019;-67
2023/01/01 04:43:56;;;;;;;12.13;2.42;;;;;;;19.98;45.96;101007.59;5113025;27;20130;-68
2023/01/01 04:46:23;;;;;;;10.27;2.25;;;;;;;19.64;47.00;101004.63;5106369;28;20036;-68
2023/01/01 04:48:49;;;;;;;11.68;2.45;;;;;;;19.44;47.17;101002.91;5114312;27;20023;-68
2023/01/01 04:51:16;;;;;;;10.82;2.03;;;;;;;19.11;47.99;101011.41;5110947;27;20019;-67
2023/01/01 04:53:41;;;;;;;8.93;2.35;;;;;;;20.23;44.92;101006.41;5113589;27;20019;-68
2023/01/01 04:56:09;;;;;;;7.25;1.88;;;;;;;19.48;46.09;101009.78;5111002;27;20068;-68
2023/01/01 04:58:37;;;;;;;8.52;1.40;;;;;;;19.87;45.00;101008.06;5073715;28;20020;-68
2023/01/01 05:01:02;;;;;;;4.18;1.27;;;;;;;18.72;46.84;101014.75;5072460;28;20344;-68
2023/01/01 05:03:28;;;;;;;12.35;1.60;;;;;;;18.64;47.20;101003.63;5110542;27;20489;-68
2023/01/01 05:06:06;;;;;;;8.88;1.60;;;;;;;18.45;47.06;101004.38;5113069;27;20015;-67
2023/01/01 05:08:33;;;;;;;7.50;1.67;;;;;;;18.96;45.69;101018.19;5111626;27;20471;-68
2023/01/01 05:11:00;;;;;;;7.20;1.10;;;;;;;19.44;44.47;101016.16;5113312;28;20031;-68
2023/01/01 05:13:26;;;;;;;11.15;1.67;;;;;;;19.93;43.71;101022.84;5107307;28;20031;-67
2023/01/01 05:15:51;;;;;;;8.45;1.85;;;;;;;19.61;44.69;101030.44;5093022;28;20027;-67
2023/01/01 05:18:16;;;;;;;6.22;1.42;;;;;;;20.15;42.54;101026.22;5091492;28;20045;-68
2023/01/01 05:20:42;;;;;;;3.70;1.23;;;;;;;19.54;43.31;101023.69;5113368;27;20027;-68
2023/01/01 05:23:07;;;;;;;6.93;1.30;;;;;;;19.77;43.29;101036.78;5094670;28;20027;-68
2023/01/01 05:25:32;;;;;;;4.93;1.30;;;;;;;20.22;42.45;101041.84;5092369;28;20038;-68
2023/01/01 05:27:58;;;;;;;5.38;1.45;;;;;;;19.50;43.67;101034.41;5092418;28;20473;-68
2023/01/01 05:30:23;;;;;;;8.93;1.42;;;;;;;19.78;43.14;101049.13;5111049;28;20027;-67
2023/01/01 05:32:48;;;;;;;6.10;1.30;;;;;;;19.81;43.18;101062.25;5087815;28;20043;-68
2023/01/01 05:35:14;;;;;;;7.70;1.45;;;;;;;19.96;42.94;101052.75;5105201;28;20028;-67
2023/01/01 05:37:39;;;;;;;6.03;1.67;;;;;;;20.37;42.45;101042.91;5093028;28;20023;-68
2023/01/01 05:40:05;;;;;;;8.98;1.65;;;;;;;19.77;43.40;101058.00;5110343;28;20098;-68
2023/01/01 05:42:31;;;;;;;7.10;1.27;;;;;;;19.30;43.96;101063.59;5110001;28;20031;-68
2023/01/01 05:44:56;;;;;;;8.45;2.42;;;;;;;20.02;42.85;101072.81;5092345;28;20032;-68
2023/01/01 05:47:21;;;;;;;8.77;1.85;;;;;;;20.13;42.37;101078.50;5091340;28;20031;-68
2023/01/01 05:49:47;;;;;;;9.10;1.45;;;;;;;20.36;42.14;101092.50;5104139;28;20130;-67
2023/01/01 05:52:12;;;;;;;8.52;1.45;;;;;;;19.65;43.52;101090.38;5119243;28;20049;-67
2023/01/01 05:54:37;;;;;;;5.47;1.42;;;;;;;20.01;42.37;101092.31;5091411;28;20031;-68
2023/01/01 05:57:03;;;;;;;10.20;1.67;;;;;;;19.33;44.00;101095.28;5092631;28;20031;-67
2023/01/01 05:59:28;;;;;;;8.88;1.52;;;;;;;19.33;43.90;101097.94;5091077;28;20027;-67
2023/01/01 06:01:53;;;;;;;8.68;2.00;;;;;;;19.39;43.47;101097.66;5099011;28;20019;-68
2023/01/01 06:04:19;;;;;;;11.65;1.80;;;;;;;18.86;44.14;101101.56;5116262;28;20028;-68
2023/01/01 06:06:44;;;;;;;9.63;1.90;;;;;;;19.66;43.66;101098.25;5090515;28;20394;-68
2023/01/01 06:09:10;;;;;;;7.10;1.70;;;;;;;20.13;42.23;101094.41;5119425;28;20494;-68
2023/01/01 06:11:35;;;;;;;16.17;1.70;;;;;;;20.16;41.33;101104.88;5112764;28;20039;-67
2023/01/01 06:14:01;;;;;;;7.22;2.00;;;;;;;20.18;41.72;101115.41;5095956;28;20067;-67
2023/01/01 06:16:28;;;;;;;10.38;1.50;;;;;;;19.06;43.79;101107.88;5095762;28;20020;-67
2023/01/01 06:18:53;;;;;;;9.27;1.40;;;;;;;19.32;43.52;101120.03;5116515;27;20508;-68
2023/01/01 06:21:21;;;;;;;4.90;1.75;;;;;;;19.90;42.28;101132.59;5120801;27;20569;-68
2023/01/01 06:23:47;;;;;;;13.25;1.80;;;;;;;19.43;42.88;101139.00;5133528;27;20109;-68
2023/01/01 06:26:22;;;;;;;8.43;2.03;;;;;;;19.55;42.40;101144.69;5116150;27;20110;-67
2023/01/01 06:28:48;;;;;;;13.60;2.08;;;;;;;19.04;43.17;101137.09;5104082;27;20032;-67
2023/01/01 06:31:16;;;;;;;7.88;1.65;;;;;;;18.94;43.16;101135.72;5113357;28;20538;-68
2023/01/01 06:33:42;;;;;;;9.63;1.60;;;;;;;19.74;42.28;101135.03;5113697;28;20110;-67
2023/01/01 06:36:10;;;;;;;7.50;1.50;;;;;;;19.86;41.62;101146.06;5095457;28;20427;-68
2023/01/01 06:38:38;;;;;;;7.97;1.60;;;;;;;19.17;42.73;101129.50;5093293;28;20063;-68
2023/01/01 06:41:05;;;;;;;11.40;2.00;;;;;;;18.81;43.86;101160.00;5094879;28;20038;-68
2023/01/01 06:43:32;;;;;;;9.80;1.40;;;;;;;19.74;42.12;101147.41;5093413;28;20853;-68
2023/01/01 06:46:19;;;;;;;14.57;2.10;;;;;;;18.61;44.36;101157.28;5095940;28;20356;-68
2023/01/01 06:48:45;;;;;;;7.45;1.30;;;;;;;20.24;41.06;101151.47;5094863;28;20037;-68
2023/01/01 06:51:22;;;;;;;8.43;1.58;;;;;;;18.62;43.61;101172.25;5112413;28;20031;-68
2023/01/01 06:53:48;;;;;;;12.50;1.80;;;;;;;18.23;45.30;101178.97;5095680;28;20122;-68
2023/01/01 06:56:14;;;;;;;7.30;2.08;;;;;;;19.27;42.79;101175.88;5112809;28;20028;-68
2023/01/01 06:58:40;;;;;;;11.75;1.65;;;;;;;19.22;42.91;101198.19;5097607;27;20042;-68
2023/01/01 07:01:09;;;;;;;9.55;1.70;;;;;;;19.68;42.03;101193.63;5094295;28;20055;-68
2023/01/01 07:03:35;;;;;;;8.85;1.40;;;;;;;20.10;41.04;101203.34;5094897;28;20035;-68
2023/01/01 07:06:00;;;;;;;6.40;1.55;;;;;;;19.58;42.09;101200.28;5093950;28;20039;-68
2023/01/01 07:08:25;;;;;;;9.75;1.50;;;;;;;18.36;44.11;101203.19;5099874;27;20422;-68
2023/01/01 07:10:51;;;;;;;13.52;1.50;;;;;;;19.72;41.88;101211.13;5124451;27;20114;-67
2023/01/01 07:13:16;;;;;;;7.40;1.38;;;;;;;19.62;41.90;101217.78;5112215;28;20020;-68
2023/01/01 07:15:43;;;;;;;7.90;1.92;;;;;;;18.65;44.08;101220.63;5095157;28;20035;-67
2023/01/01 07:18:08;;;;;;;9.73;2.80;;;;;;;18.96;43.12;101214.19;5097594;27;20321;-67
2023/01/01 07:20:34;;;;;;;6.40;2.07;;;;;;;19.04;43.19;101236.88;5115060;27;20136;-67
2023/01/01 07:23:01;;;;;;;7.70;1.45;;;;;;;19.13;42.74;101237.38;5099799;28;20046;-67
2023/01/01 07:25:26;;;;;;;8.95;1.55;;;;;;;19.37;42.69;101255.88;5111283;28;20035;-67
2023/01/01 07:27:52;;;;;;;11.27;1.70;;;;;;;19.61;42.54;101253.16;5112568;27;20398;-67
2023/01/01 07:30:17;;;;;;;14.75;2.20;;;;;;;19.68;42.31;101259.94;5115167;27;20412;-67
2023/01/01 07:32:42;;;;;;;8.55;2.28;;;;;;;19.41;42.71;101261.91;5114854;27;20390;-67
2023/01/01 07:35:09;;;;;;;8.57;1.93;;;;;;;19.08;42.86;101264.97;5115060;27;20390;-67
2023/01/01 07:37:35;;;;;;;13.53;1.93;;;;;;;19.04;43.46;101269.53;5089952;27;20038;-67
2023/01/01 07:40:00;;;;;;;12.00;2.57;;;;;;;19.57;42.36;101283.38;5093044;28;20023;-67
2023/01/01 07:42:25;;;;;;;10.23;2.45;;;;;;;19.60;41.62;101288.53;5093649;28;20118;-67
2023/01/01 07:44:51;;;;;;;9.33;1.50;;;;;;;18.97;42.60;101297.16;5094606;28;20527;-67
2023/01/01 07:47:22;;;;;;;12.40;2.70;;;;;;;19.57;42.38;101309.88;5109323;28;20394;-67
2023/01/01 07:49:48;;;;;;;9.60;2.83;;;;;;;19.69;41.86;101309.38;5119530;27;20028;-67
2023/01/01 07:52:13;;;;;;;15.10;1.60;;;;;;;19.21;42.33;101313.06;5107668;27;20107;-67
2023/01/01 07:54:39;;;;;;;6.23;1.47;;;;;;;19.00;43.27;101315.63;5113400;27;20542;-67
2023/01/01 07:57:04;;;;;;;13.60;1.73;;;;;;;18.88;43.22;101321.38;5092876;28;20031;-67
2023/01/01 07:59:29;;;;;;;9.57;1.40;;;;;;;19.31;42.15;101325.03;5110986;27;20061;-67
2023/01/01 08:01:55;;;;;;;9.30;1.87;;;;;;;17.77;44.94;101337.41;5127531;27;20490;-68
2023/01/01 08:04:20;;;;;;;20.13;2.07;;;;;;;17.90;45.16;101337.03;5112300;28;20043;-67
2023/01/01 08:06:46;;;;;;;8.87;2.10;;;;;;;18.22;44.60;101335.13;5093421;28;20077;-69
2023/01/01 08:09:11;;;;;;;16.33;2.43;;;;;;;18.57;43.84;101344.47;5112088;27;20031;-68
2023/01/01 08:11:37;;;;;;;6.53;1.23;;;;;;;18.61;43.55;101350.53;5112330;28;20032;-67
2023/01/01 08:14:02;;;;;;;10.53;1.27;;;;;;;18.17;44.45;101352.94;5092705;28;20027;-68
2023/01/01 08:16:27;;;;;;;12.87;2.10;;;;;;;18.80;43.55;101346.28;5111702;28;20031;-68
2023/01/01 08:18:53;;;;;;;8.13;1.57;;;;;;;17.92;45.08;101351.09;5113706;27;20031;-68
2023/01/01 08:21:18;;;;;;;6.93;1.53;;;;;;;18.85;43.15;101353.22;5093022;28;20118;-68
2023/01/01 08:23:43;;;;;;;8.87;2.13;;;;;;;18.76;43.65;101355.28;5111485;28;20031;-68
2023/01/01 08:26:17;;;;;;;9.23;2.13;;;;;;;18.68;43.21;101353.81;5094045;28;20032;-68
2023/01/01 08:28:43;;;;;;;13.47;2.30;;;;;;;19.46;42.44;101345.63;5126354;27;20031;-68
2023/01/01 08:31:09;;;;;;;12.80;2.07;;;;;;;19.36;41.92;101349.56;5132369;27;20035;-68
2023/01/01 08:33:34;;;;;;;10.63;1.47;;;;;;;19.40;41.68;101351.19;5116436;27;20085;-68
2023/01/01 08:36:00;;;;;;;8.90;1.50;;;;;;;19.47;42.22;101357.09;5092419;28;20027;-68
2023/01/01 08:38:26;;;;;;;8.07;1.50;;;;;;;19.40;42.17;101351.19;5103467;27;20035;-68
2023/01/01 08:40:52;;;;;;;20.77;2.83;;;;;;;19.15;42.96;101367.13;5132802;27;20030;-68
2023/01/01 08:43:17;;;;;;;10.97;2.17;;;;;;;19.29;42.67;101366.63;5104117;28;20051;-68
2023/01/01 08:45:44;;;;;;;5.90;1.70;;;;;;;19.30;42.29;101365.69;5093881;28;20051;-68
2023/01/01 08:48:10;;;;;;;14.10;1.57;;;;;;;19.08;43.33;101369.19;5110788;27;20023;-68
2023/01/01 08:50:35;;;;;;;8.20;1.47;;;;;;;18.48;44.38;101380.06;5092604;28;20127;-68
2023/01/01 08:53:01;;;;;;;13.87;1.57;;;;;;;18.60;44.24;101380.56;5091151;28;20114;-68
2023/01/01 08:55:26;;;;;;;9.47;1.80;;;;;;;19.46;42.63;101381.88;5109534;28;20031;-68
2023/01/01 08:57:52;;;;;;;9.10;1.50;;;;;;;19.20;42.98;101382.88;5099807;27;20034;-68
2023/01/01 09:00:17;;;;;;;11.13;2.23;;;;;;;18.56;43.75;101392.19;5109656;28;20051;-68
2023/01/01 09:02:43;;;;;;;15.70;1.47;;;;;;;19.13;43.59;101385.75;5107198;28;20065;-68
2023/01/01 09:05:09;;;;;;;16.13;1.80;;;;;;;18.52;44.51;101394.09;5089427;28;20541;-68
2023/01/01 09:07:35;;;;;;;9.53;1.47;;;;;;;19.48;42.67;101380.91;5093968;28;20343;-68
2023/01/01 09:10:00;;;;;;;13.70;1.53;;;;;;;19.00;43.91;101384.50;5095857;28;20100;-68
2023/01/01 09:12:26;;;;;;;12.03;1.77;;;;;;;18.62;44.41;101395.47;5090312;28;20032;-68
2023/01/01 09:14:51;;;;;;;11.32;2.08;;;;;;;18.43;44.67;101400.53;5088787;28;20448;-68
2023/01/01 09:17:16;;;;;;;18.93;2.10;;;;;;;19.08;43.22;101387.72;5095596;28;20471;-68
2023/01/01 09:19:42;;;;;;;12.17;1.83;;;;;;;18.98;43.36;101381.88;5096929;28;20089;-68
2023/01/01 09:22:11;;;;;;;11.50;1.85;;;;;;;19.23;43.04;101385.41;5087469;28;20028;-68
2023/01/01 09:24:37;;;;;;;13.07;1.67;;;;;;;19.36;42.98;101394.63;5089332;28;20028;-68
2023/01/01 09:27:02;;;;;;;15.17;2.30;;;;;;;19.03;43.33;101388.78;5090938;28;20051;-68
2023/01/01 09:29:28;;;;;;;10.97;1.70;;;;;;;18.70;44.34;101391.69;5086237;28;20545;-68
2023/01/01 09:31:53;;;;;;;12.48;1.58;;;;;;;19.21;42.96;101381.97;5098238;28;20386;-68
2023/01/01 09:34:18;;;;;;;10.65;1.38;;;;;;;20.24;41.32;101388.53;5090515;28;20035;-68
2023/01/01 09:36:45;;;;;;;16.02;2.42;;;;;;;19.65;42.42;101384.69;5091032;28;20107;-68
2023/01/01 09:39:12;;;;;;;11.77;1.58;;;;;;;19.72;42.20;101383.50;5095455;28;20024;-68
2023/01/01 09:42:10;;;;;;;13.32;2.25;;;;;;;20.05;41.49;101401.69;5090508;28;20085;-68
2023/01/01 09:44:54;;;;;;;6.72;1.80;;;;;;;20.09;41.85;101397.97;5109503;28;20031;-68
2023/01/01 09:47:23;;;;;;;9.07;1.30;;;;;;;19.12;43.95;101410.53;5093374;28;20032;-68
2023/01/01 09:49:50;;;;;;;14.90;1.80;;;;;;;18.27;45.47;101423.13;5093824;28;20368;-68
2023/01/01 09:52:18;;;;;;;10.77;1.70;;;;;;;20.02;43.01;101423.03;5097988;28;20116;-68
2023/01/01 09:54:50;;;;;;;9.18;1.52;;;;;;;19.14;44.12;101423.72;5094574;28;20149;-68
2023/01/01 09:57:16;;;;;;;12.13;1.87;;;;;;;18.95;45.30;101434.13;5108566;28;20425;-68
2023/01/01 09:59:41;;;;;;;8.38;1.40;;;;;;;19.61;44.04;101436.97;5087534;28;20028;-68
2023/01/01 10:02:15;;;;;;;9.60;1.55;;;;;;;18.35;46.50;101442.28;5115273;28;20084;-68
2023/01/01 10:05:13;;;;;;;14.07;2.17;;;;;;;19.12;45.96;101450.28;5114463;28;20106;-69
2023/01/01 10:08:17;;;;;;;10.60;1.70;;;;;;;19.36;45.48;101434.38;5096187;28;20500;-68
2023/01/01 10:10:54;;;;;;;20.30;2.03;;;;;;;18.81;47.46;101432.78;4994810;28;20157;-68
2023/01/01 10:13:25;;;;;;;13.77;1.67;;;;;;;18.87;46.86;101423.75;5087630;28;20035;-68
2023/01/01 10:15:59;;;;;;;13.13;2.10;;;;;;;19.57;45.86;101423.88;5114276;28;20027;-68
2023/01/01 10:18:32;;;;;;;13.15;1.77;;;;;;;19.01;46.24;101412.69;5097683;28;20126;-68
2023/01/01 10:21:26;;;;;;;9.77;1.67;;;;;;;18.70;47.39;101421.69;5092574;28;20023;-68
2023/01/01 10:23:55;;;;;;;13.48;1.58;;;;;;;19.15;46.63;101407.75;5086873;28;20062;-68
2023/01/01 10:26:24;;;;;;;13.82;1.98;;;;;;;19.09;46.48;101405.31;5106793;27;20035;-68
2023/01/01 10:29:05;;;;;;;10.73;1.53;;;;;;;19.13;46.69;101412.25;5112098;27;20094;-68
2023/01/01 10:31:38;;;;;;;12.02;1.85;;;;;;;17.96;49.89;101393.25;5104028;27;20389;-68
2023/01/01 10:34:25;;;;;;;14.88;1.83;;;;;;;20.42;44.50;101388.69;5112750;28;20024;-68
2023/01/01 10:36:53;;;;;;;15.80;2.40;;;;;;;20.48;44.11;101404.34;5094126;27;20439;-68
2023/01/01 10:39:19;;;;;;;15.00;2.10;;;;;;;19.24;46.80;101419.78;5088856;28;20051;-68
2023/01/01 10:41:46;;;;;;;12.13;1.92;;;;;;;19.25;46.68;101433.94;5094757;28;20452;-68
2023/01/01 10:44:20;;;;;;;6.45;1.60;;;;;;;18.89;47.99;101434.31;5092635;28;20024;-68
2023/01/01 10:46:52;;;;;;;9.50;1.60;;;;;;;18.62;47.97;101443.13;5093029;28;20059;-68
2023/01/01 10:49:17;;;;;;;18.58;2.55;;;;;;;19.70;46.13;101443.72;5093890;28;20030;-68
2023/01/01 10:51:48;;;;;;;15.05;2.38;;;;;;;20.46;44.87;101454.00;5092845;28;20028;-68
2023/01/01 10:54:36;;;;;;;14.88;2.17;;;;;;;20.07;45.79;101458.22;5094037;28;20085;-69
2023/01/01 10:57:17;;;;;;;13.77;2.75;;;;;;;19.25;47.81;101473.69;5091409;28;20493;-68
2023/01/01 10:59:43;;;;;;;8.18;1.98;;;;;;;18.36;49.93;101473.13;5100614;28;20087;-68
2023/01/01 11:02:20;;;;;;;10.05;1.95;;;;;;;19.27;48.24;101466.53;5094283;28;20115;-69
2023/01/01 11:04:46;;;;;;;14.52;2.13;;;;;;;19.64;47.24;101459.84;5110602;28;20027;-68
2023/01/01 11:07:32;;;;;;;15.18;2.55;;;;;;;19.80;46.98;101470.78;5092056;28;20024;-68
2023/01/01 11:10:03;;;;;;;9.57;1.67;;;;;;;19.88;46.73;101474.00;5111392;27;20063;-68
2023/01/01 11:12:34;;;;;;;9.50;1.92;;;;;;;19.86;46.03;101475.81;5088335;28;20031;-68
2023/01/01 11:15:00;;;;;;;14.80;2.38;;;;;;;19.71;46.57;101466.63;5088164;28;20039;-68
2023/01/01 11:17:29;;;;;;;14.82;2.10;;;;;;;18.93;48.46;101468.59;5105479;27;20035;-68
2023/01/01 11:19:57;;;;;;;11.20;2.38;;;;;;;20.11;46.13;101465.13;5093325;28;20025;-68
2023/01/01 11:22:42;;;;;;;8.30;2.13;;;;;;;18.82;49.51;101470.69;5092061;28;20020;-69
2023/01/01 11:25:29;;;;;;;16.10;2.50;;;;;;;19.27;48.96;101477.13;5111965;28;20089;-68
2023/01/01 11:28:21;;;;;;;10.52;2.20;;;;;;;20.83;45.36;101463.94;5092544;28;20027;-68
2023/01/01 11:31:16;;;;;;;14.13;3.05;;;;;;;19.32;49.29;101464.56;5093125;28;20067;-68
2023/01/01 11:33:49;;;;;;;12.02;2.38;;;;;;;19.32;49.31;101443.38;5101352;27;20490;-68
2023/01/01 11:36:43;;;;;;;10.35;3.13;;;;;;;19.40;49.10;101451.91;5090107;28;20490;-68